Time;durP1;ratioP1;P1;durP2;ratioP2;P2;SDS_P1;SDS_P2;PMS_P1;PMS_P2;Temp;Humidity;BMP_temperature;BMP_pressure;BME280_temperature;BME280_humidity;BME280_pressure;Samples;Min_cycle;Max_cycle;Signal;HPM_P1;HPM_P2
2023/04/17 00:02:10;;;;;;;81.13;38.55;;;;;;;9.08;100.00;102486.59;4983197;28;20608;-71
2023/04/17 00:04:37;;;;;;;68.00;35.80;;;;;;;9.38;100.00;102493.66;4975759;28;21279;-71
2023/04/17 00:07:03;;;;;;;68.78;35.92;;;;;;;9.43;100.00;102489.06;4974196;28;20054;-71
2023/04/17 00:09:29;;;;;;;75.80;36.92;;;;;;;9.32;100.00;102492.94;4975030;28;20034;-71
2023/04/17 00:11:55;;;;;;;69.95;35.97;;;;;;;9.49;100.00;102487.09;4978429;28;20031;-71
2023/04/17 00:14:20;;;;;;;76.65;37.75;;;;;;;9.23;100.00;102487.03;4972085;28;20066;-71
2023/04/17 00:16:46;;;;;;;70.32;36.83;;;;;;;9.18;100.00;102486.31;4974571;28;20043;-71
2023/04/17 00:19:12;;;;;;;64.57;35.58;;;;;;;9.14;100.00;102484.69;4980891;28;20047;-71
2023/04/17 00:21:37;;;;;;;79.32;36.85;;;;;;;9.34;100.00;102491.13;4977766;28;20042;-71
2023/04/17 00:24:03;;;;;;;78.00;38.40;;;;;;;9.11;100.00;102495.41;4975128;28;20491;-71
2023/04/17 00:26:28;;;;;;;70.55;36.65;;;;;;;9.19;100.00;102488.94;4974096;28;20041;-71
2023/04/17 00:28:55;;;;;;;71.28;37.55;;;;;;;9.13;100.00;102489.09;4973886;28;20043;-71
2023/04/17 00:31:20;;;;;;;71.80;37.58;;;;;;;9.16;100.00;102490.81;4990095;28;20047;-71
2023/04/17 00:33:46;;;;;;;76.38;38.65;;;;;;;9.39;100.00;102488.31;4973544;28;20034;-71
2023/04/17 00:36:12;;;;;;;79.53;37.50;;;;;;;9.15;100.00;102486.41;4974312;28;20039;-71
2023/04/17 00:38:38;;;;;;;77.32;35.28;;;;;;;9.14;100.00;102495.31;4989151;28;20050;-71
2023/04/17 00:41:04;;;;;;;80.38;37.63;;;;;;;9.35;100.00;102494.66;4975846;28;20038;-71
2023/04/17 00:43:30;;;;;;;75.05;34.97;;;;;;;9.12;100.00;102494.47;4975159;28;20825;-71
2023/04/17 00:45:55;;;;;;;80.63;38.35;;;;;;;9.17;100.00;102484.56;4990803;28;20046;-71
2023/04/17 00:48:24;;;;;;;86.43;38.22;;;;;;;9.31;100.00;102488.53;4975922;28;20038;-71
2023/04/17 00:50:51;;;;;;;78.65;38.00;;;;;;;9.00;100.00;102493.94;4999082;28;20050;-71
2023/04/17 00:53:17;;;;;;;75.22;36.35;;;;;;;9.08;100.00;102489.25;4989273;28;20145;-71
2023/04/17 00:55:44;;;;;;;73.32;37.10;;;;;;;8.91;100.00;102494.22;4975284;28;20035;-71
2023/04/17 00:58:10;;;;;;;69.20;34.38;;;;;;;9.09;100.00;102492.81;4973574;28;20174;-71
2023/04/17 01:00:36;;;;;;;78.60;36.03;;;;;;;9.22;100.00;102488.81;4974826;28;20045;-71
2023/04/17 01:03:02;;;;;;;77.50;35.30;;;;;;;9.13;100.00;102485.56;4971754;28;20189;-71
2023/04/17 01:05:28;;;;;;;76.68;37.25;;;;;;;9.10;100.00;102491.88;4972225;28;20035;-71
2023/04/17 01:07:56;;;;;;;73.40;35.30;;;;;;;9.08;100.00;102489.25;4978082;28;20026;-71
2023/04/17 01:10:22;;;;;;;79.65;36.35;;;;;;;8.99;100.00;102486.88;4973188;28;20043;-71
2023/04/17 01:13:01;;;;;;;73.93;34.78;;;;;;;8.75;100.00;102493.81;4974392;28;20042;-71
2023/04/17 01:15:26;;;;;;;70.95;34.92;;;;;;;8.78;100.00;102499.00;4971864;28;20062;-71
2023/04/17 01:17:52;;;;;;;64.55;32.38;;;;;;;8.88;100.00;102499.63;4978113;28;20041;-71
2023/04/17 01:20:18;;;;;;;68.05;32.90;;;;;;;8.73;100.00;102498.28;4973351;28;20111;-71
2023/04/17 01:22:43;;;;;;;72.35;34.20;;;;;;;8.88;100.00;102498.75;4973087;28;20408;-71
2023/04/17 01:25:09;;;;;;;75.68;34.75;;;;;;;8.92;100.00;102498.63;4972899;28;20042;-71
2023/04/17 01:27:37;;;;;;;68.32;34.28;;;;;;;8.75;100.00;102499.13;4983887;28;20088;-71
2023/04/17 01:30:03;;;;;;;74.13;36.60;;;;;;;8.95;100.00;102501.19;4986587;28;20054;-71
2023/04/17 01:32:32;;;;;;;70.97;33.40;;;;;;;8.79;100.00;102500.78;4987626;28;20045;-72
2023/04/17 01:34:57;;;;;;;71.05;36.78;;;;;;;8.95;100.00;102503.84;4992287;28;20086;-71
2023/04/17 01:37:23;;;;;;;73.38;34.55;;;;;;;9.10;100.00;102499.00;4971905;28;20550;-71
2023/04/17 01:39:49;;;;;;;67.88;33.20;;;;;;;9.03;100.00;102495.63;4979567;28;20058;-71
2023/04/17 01:42:14;;;;;;;67.13;32.75;;;;;;;9.10;100.00;102494.53;4973349;28;20085;-71
2023/04/17 01:44:40;;;;;;;73.05;35.20;;;;;;;8.93;100.00;102497.69;4972587;28;20031;-71
2023/04/17 01:47:05;;;;;;;82.32;37.45;;;;;;;8.93;100.00;102499.47;4989497;28;20031;-71
2023/04/17 01:49:31;;;;;;;80.95;37.65;;;;;;;8.77;100.00;102505.25;4976128;28;20039;-71
2023/04/17 01:51:57;;;;;;;80.85;37.95;;;;;;;8.86;100.00;102504.13;4982403;28;20038;-71
2023/04/17 01:54:23;;;;;;;69.82;35.08;;;;;;;8.65;100.00;102505.63;4978719;28;20104;-72
2023/04/17 01:56:49;;;;;;;73.90;36.13;;;;;;;8.76;100.00;102506.19;4978660;28;20604;-71
2023/04/17 01:59:15;;;;;;;78.55;35.45;;;;;;;8.77;100.00;102507.03;4971952;28;20055;-71
2023/04/17 02:01:40;;;;;;;77.25;36.78;;;;;;;8.72;100.00;102507.19;4983586;28;20034;-71
2023/04/17 02:04:06;;;;;;;75.88;36.42;;;;;;;8.52;100.00;102517.50;4980212;28;20050;-71
2023/04/17 02:06:31;;;;;;;72.20;35.35;;;;;;;8.61;100.00;102522.56;4976627;28;20050;-71
2023/04/17 02:08:58;;;;;;;73.80;33.80;;;;;;;8.44;100.00;102515.06;4974373;28;20035;-71
2023/04/17 02:11:25;;;;;;;79.90;37.78;;;;;;;8.37;100.00;102521.47;4972972;28;20031;-71
2023/04/17 02:13:50;;;;;;;73.53;35.83;;;;;;;8.20;100.00;102532.50;4972917;28;20035;-71
2023/04/17 02:16:16;;;;;;;77.03;37.60;;;;;;;8.44;100.00;102524.84;4976127;28;20038;-71
2023/04/17 02:18:41;;;;;;;78.63;37.50;;;;;;;8.28;100.00;102532.28;4991385;28;20884;-71
2023/04/17 02:21:08;;;;;;;83.95;38.22;;;;;;;8.32;100.00;102529.53;4971419;28;20078;-71
2023/04/17 02:23:34;;;;;;;81.90;35.78;;;;;;;8.29;100.00;102528.75;4986428;28;20566;-71
2023/04/17 02:26:01;;;;;;;76.90;35.92;;;;;;;8.38;100.00;102523.19;4975025;28;20043;-71
2023/04/17 02:28:27;;;;;;;83.15;38.25;;;;;;;8.37;100.00;102528.56;4970584;28;20035;-71
2023/04/17 02:30:52;;;;;;;75.82;37.42;;;;;;;8.34;100.00;102521.53;4970298;28;20039;-71
2023/04/17 02:33:18;;;;;;;83.50;39.40;;;;;;;8.35;100.00;102523.25;4985646;28;20504;-71
2023/04/17 02:35:43;;;;;;;82.30;38.42;;;;;;;8.45;100.00;102527.44;4976399;28;20035;-71
2023/04/17 02:38:09;;;;;;;78.30;36.90;;;;;;;8.44;100.00;102530.16;4982244;28;20726;-71
2023/04/17 02:40:34;;;;;;;80.32;39.50;;;;;;;8.45;100.00;102521.25;4983516;28;20038;-71
2023/04/17 02:43:01;;;;;;;77.97;38.10;;;;;;;8.27;100.00;102527.91;4972739;28;20105;-71
2023/04/17 02:45:27;;;;;;;77.07;38.53;;;;;;;8.22;100.00;102522.72;4977821;28;20178;-71
2023/04/17 02:47:53;;;;;;;83.38;38.33;;;;;;;8.45;100.00;102529.25;4981187;28;20485;-71
2023/04/17 02:50:18;;;;;;;74.43;37.53;;;;;;;8.39;100.00;102522.31;4983260;28;20731;-71
2023/04/17 02:53:16;;;;;;;80.80;36.70;;;;;;;8.32;100.00;102526.88;4975546;28;20082;-71
2023/04/17 02:55:41;;;;;;;84.45;38.88;;;;;;;8.15;100.00;102533.56;5000735;28;20105;-71
2023/04/17 02:58:07;;;;;;;87.03;37.78;;;;;;;7.98;100.00;102534.88;4991689;28;20789;-71
2023/04/17 03:00:33;;;;;;;80.78;38.40;;;;;;;8.10;100.00;102535.47;4993869;28;20039;-71
2023/04/17 03:02:58;;;;;;;82.22;38.15;;;;;;;8.26;100.00;102531.47;4993517;28;20035;-73
2023/04/17 03:05:24;;;;;;;79.57;38.22;;;;;;;8.35;100.00;102535.69;4982735;28;21045;-71
2023/04/17 03:07:52;;;;;;;82.32;36.08;;;;;;;8.55;100.00;102539.56;4981383;28;20149;-71
2023/04/17 03:10:18;;;;;;;77.97;37.72;;;;;;;8.31;100.00;102540.19;4978002;28;20039;-71
2023/04/17 03:12:43;;;;;;;77.93;36.95;;;;;;;8.17;100.00;102543.22;4995773;28;20633;-71
2023/04/17 03:15:11;;;;;;;83.78;38.50;;;;;;;7.92;100.00;102544.75;4981573;28;20031;-71
2023/04/17 03:17:37;;;;;;;82.55;38.13;;;;;;;7.92;100.00;102552.72;4994015;28;20073;-71
2023/04/17 03:20:03;;;;;;;82.55;37.42;;;;;;;8.14;100.00;102547.75;4972304;28;20563;-71
2023/04/17 03:22:29;;;;;;;82.60;38.30;;;;;;;8.31;100.00;102550.84;4992559;28;20030;-71
2023/04/17 03:24:54;;;;;;;85.03;37.35;;;;;;;8.20;100.00;102550.25;4975468;28;20034;-71
2023/04/17 03:27:23;;;;;;;79.50;37.92;;;;;;;8.13;100.00;102544.19;4996867;28;20047;-71
2023/04/17 03:29:55;;;;;;;93.68;39.10;;;;;;;7.95;100.00;102548.22;4994761;28;20034;-71
2023/04/17 03:32:21;;;;;;;88.43;38.58;;;;;;;8.19;100.00;102557.34;4982619;28;20039;-71
2023/04/17 03:34:47;;;;;;;86.93;38.95;;;;;;;8.01;100.00;102548.06;4995343;28;20038;-72
2023/04/17 03:37:13;;;;;;;88.88;37.83;;;;;;;8.37;100.00;102536.53;4988509;28;20039;-71
2023/04/17 03:39:39;;;;;;;83.95;38.30;;;;;;;8.32;100.00;102528.66;4995256;28;20043;-71
2023/04/17 03:42:05;;;;;;;79.20;36.60;;;;;;;8.37;100.00;102539.19;4990555;28;20039;-71
2023/04/17 03:44:31;;;;;;;89.35;39.95;;;;;;;8.17;100.00;102543.22;4978791;28;20058;-71
2023/04/17 03:46:57;;;;;;;93.18;41.00;;;;;;;8.16;100.00;102540.59;4979806;28;20268;-71
2023/04/17 03:49:22;;;;;;;83.57;37.75;;;;;;;8.15;100.00;102539.72;4973206;28;20891;-71
2023/04/17 03:51:49;;;;;;;86.32;40.53;;;;;;;8.02;100.00;102544.47;4982744;28;20150;-71
2023/04/17 03:54:18;;;;;;;91.88;39.88;;;;;;;8.04;100.00;102548.00;4992390;28;20109;-71
2023/04/17 03:56:47;;;;;;;80.78;37.00;;;;;;;8.15;100.00;102545.06;4973320;28;20129;-71
2023/04/17 03:59:12;;;;;;;96.78;41.38;;;;;;;8.02;100.00;102549.78;4972059;28;20554;-71
2023/04/17 04:01:41;;;;;;;92.57;39.85;;;;;;;8.00;100.00;102551.63;4974102;28;20046;-71
2023/04/17 04:04:19;;;;;;;85.45;38.33;;;;;;;8.34;100.00;102548.09;4988440;28;20045;-71
2023/04/17 04:06:46;;;;;;;95.68;40.83;;;;;;;8.14;100.00;102548.63;4989851;28;20042;-72
2023/04/17 04:09:14;;;;;;;95.28;41.20;;;;;;;7.85;100.00;102557.31;4973600;28;20058;-70
2023/04/17 04:11:41;;;;;;;100.40;42.22;;;;;;;7.95;100.00;102550.00;4987036;28;20109;-70
2023/04/17 04:14:06;;;;;;;98.28;42.25;;;;;;;8.12;100.00;102560.19;4988248;28;20050;-69
2023/04/17 04:16:32;;;;;;;101.55;42.20;;;;;;;7.94;100.00;102551.78;4971728;28;20038;-69
2023/04/17 04:19:09;;;;;;;98.72;40.60;;;;;;;8.07;100.00;102554.13;4986610;28;20045;-70
2023/04/17 04:21:36;;;;;;;92.63;41.53;;;;;;;8.23;100.00;102555.47;4973567;28;20356;-70
2023/04/17 04:24:04;;;;;;;102.95;42.83;;;;;;;8.26;100.00;102558.94;4978598;28;20122;-69
2023/04/17 04:26:32;;;;;;;106.55;44.55;;;;;;;8.03;100.00;102563.94;4973844;28;20038;-70
2023/04/17 04:28:59;;;;;;;95.35;40.97;;;;;;;8.30;100.00;102562.38;4979786;28;20096;-71
2023/04/17 04:31:39;;;;;;;112.43;42.95;;;;;;;8.14;100.00;102561.91;4983199;28;20039;-71
2023/04/17 04:34:07;;;;;;;117.95;45.33;;;;;;;8.14;100.00;102566.34;4992117;28;20404;-72
2023/04/17 04:36:40;;;;;;;108.22;45.80;;;;;;;8.29;100.00;102563.31;4991144;28;20038;-72
2023/04/17 04:39:19;;;;;;;115.22;48.35;;;;;;;8.21;100.00;102558.16;4985316;28;20051;-72
2023/04/17 04:41:52;;;;;;;110.35;46.55;;;;;;;8.34;100.00;102557.88;4974079;28;20026;-69
2023/04/17 04:44:21;;;;;;;121.55;47.88;;;;;;;8.22;100.00;102564.34;4993650;28;20043;-72
2023/04/17 04:46:51;;;;;;;126.70;48.30;;;;;;;8.17;100.00;102561.81;4982779;28;20038;-70
2023/04/17 04:49:17;;;;;;;116.05;47.25;;;;;;;8.36;100.00;102564.91;4981195;28;20086;-72
2023/04/17 04:51:43;;;;;;;114.80;48.00;;;;;;;8.19;100.00;102562.66;4971335;28;20448;-69
2023/04/17 04:54:09;;;;;;;136.52;50.13;;;;;;;8.13;100.00;102565.44;4970572;28;20860;-72
2023/04/17 04:56:43;;;;;;;114.18;45.42;;;;;;;8.45;100.00;102567.31;4988148;28;20042;-69
2023/04/17 04:59:10;;;;;;;122.35;46.30;;;;;;;8.34;100.00;102565.84;4979290;28;20150;-69
2023/04/17 05:01:40;;;;;;;140.48;52.53;;;;;;;8.16;100.00;102572.50;4987450;28;20141;-71
2023/04/17 05:04:07;;;;;;;138.82;51.25;;;;;;;8.27;100.00;102573.06;4974222;28;20043;-72
2023/04/17 05:06:33;;;;;;;128.85;51.60;;;;;;;8.17;100.00;102575.09;4979618;28;20773;-71
2023/04/17 05:09:02;;;;;;;124.18;50.67;;;;;;;8.17;100.00;102583.06;4987241;28;20039;-71
2023/04/17 05:11:28;;;;;;;126.80;52.60;;;;;;;8.27;100.00;102581.06;4987474;28;20054;-71
2023/04/17 05:13:54;;;;;;;127.20;51.10;;;;;;;8.31;100.00;102574.75;4973455;28;20027;-69
2023/04/17 05:16:27;;;;;;;120.55;49.80;;;;;;;8.46;100.00;102579.69;4979106;28;20045;-69
2023/04/17 05:18:54;;;;;;;137.52;51.75;;;;;;;8.57;100.00;102582.06;4977359;28;20043;-69
2023/04/17 05:21:31;;;;;;;115.85;46.67;;;;;;;8.66;100.00;102576.50;4973003;28;20065;-72
2023/04/17 05:23:59;;;;;;;126.25;51.35;;;;;;;8.61;100.00;102580.19;4979914;28;20030;-71
2023/04/17 05:26:26;;;;;;;117.63;48.00;;;;;;;8.66;100.00;102580.94;4976915;28;20035;-72
2023/04/17 05:28:51;;;;;;;122.55;49.90;;;;;;;8.62;100.00;102581.94;4972611;28;20105;-72
2023/04/17 05:31:22;;;;;;;124.03;49.28;;;;;;;8.36;100.00;102588.81;4988008;28;20026;-72
2023/04/17 05:33:48;;;;;;;124.72;50.88;;;;;;;8.45;100.00;102599.22;4982746;28;20034;-69
2023/04/17 05:36:14;;;;;;;136.90;50.08;;;;;;;8.44;100.00;102594.81;4975050;28;20291;-69
2023/04/17 05:38:40;;;;;;;128.38;49.53;;;;;;;8.55;100.00;102589.22;4993536;28;20042;-72
2023/04/17 05:41:07;;;;;;;129.73;52.38;;;;;;;8.51;100.00;102590.22;4990051;28;20907;-71
2023/04/17 05:43:33;;;;;;;126.85;50.50;;;;;;;8.40;100.00;102593.16;4976660;28;20047;-72
2023/04/17 05:45:59;;;;;;;129.73;51.28;;;;;;;8.50;100.00;102588.47;4977395;28;20041;-71
2023/04/17 05:48:25;;;;;;;121.28;49.35;;;;;;;8.64;100.00;102590.78;4975240;28;20026;-71
2023/04/17 05:50:51;;;;;;;129.82;52.15;;;;;;;8.57;100.00;102590.91;4973432;28;20042;-71
2023/04/17 05:53:17;;;;;;;125.13;50.75;;;;;;;8.48;100.00;102599.16;4990901;28;20039;-71
2023/04/17 05:55:48;;;;;;;132.75;52.60;;;;;;;8.69;100.00;102604.81;4972644;28;20042;-71
2023/04/17 05:58:13;;;;;;;118.75;48.85;;;;;;;8.62;100.00;102603.22;4988420;28;20322;-72
2023/04/17 06:00:40;;;;;;;124.72;52.03;;;;;;;8.63;100.00;102599.63;4994692;28;20078;-72
2023/04/17 06:03:08;;;;;;;118.22;49.33;;;;;;;8.50;100.00;102607.97;4987861;28;20086;-71
2023/04/17 06:05:37;;;;;;;112.07;49.15;;;;;;;8.79;100.00;102601.00;4987257;28;20047;-71
2023/04/17 06:08:02;;;;;;;111.95;49.47;;;;;;;8.80;100.00;102602.72;4971812;28;20043;-71
2023/04/17 06:10:28;;;;;;;118.53;49.42;;;;;;;8.61;100.00;102599.69;4975698;28;20085;-72
2023/04/17 06:12:53;;;;;;;109.68;47.58;;;;;;;8.90;100.00;102606.88;4976394;28;20050;-71
2023/04/17 06:15:20;;;;;;;112.70;49.28;;;;;;;8.82;100.00;102607.06;4974193;28;20034;-71
2023/04/17 06:17:46;;;;;;;109.60;47.53;;;;;;;8.90;100.00;102604.22;4975421;28;20038;-71
2023/04/17 06:20:12;;;;;;;105.20;47.53;;;;;;;8.81;100.00;102613.31;4977396;28;20792;-71
2023/04/17 06:22:38;;;;;;;107.70;46.90;;;;;;;8.79;100.00;102603.66;4975296;28;20150;-70
2023/04/17 06:25:05;;;;;;;114.47;49.17;;;;;;;8.89;100.00;102609.59;4991560;28;20039;-71
2023/04/17 06:27:31;;;;;;;98.03;46.08;;;;;;;8.98;100.00;102614.63;4974810;28;20881;-70
2023/04/17 06:29:57;;;;;;;112.45;47.22;;;;;;;8.91;100.00;102607.75;4974661;28;20041;-70
2023/04/17 06:32:22;;;;;;;109.53;46.60;;;;;;;8.96;100.00;102617.34;4976685;28;20038;-70
2023/04/17 06:34:49;;;;;;;120.90;51.03;;;;;;;8.83;100.00;102618.59;4976288;28;20149;-71
2023/04/17 06:37:17;;;;;;;111.38;47.88;;;;;;;8.75;100.00;102621.47;4998394;28;20138;-71
2023/04/17 06:39:43;;;;;;;117.13;50.03;;;;;;;8.77;100.00;102618.75;4967848;28;20047;-71
2023/04/17 06:42:08;;;;;;;107.55;48.38;;;;;;;8.94;100.00;102621.84;4987292;28;20869;-72
2023/04/17 06:44:38;;;;;;;114.35;51.30;;;;;;;8.83;100.00;102621.25;4991494;28;20035;-71
2023/04/17 06:47:11;;;;;;;104.78;47.65;;;;;;;8.86;100.00;102629.16;4990361;28;20027;-71
2023/04/17 06:49:36;;;;;;;107.20;45.80;;;;;;;8.95;100.00;102623.59;4986211;28;20121;-71
2023/04/17 06:52:02;;;;;;;111.30;49.03;;;;;;;8.97;100.00;102629.72;4990925;28;20041;-71
2023/04/17 06:54:28;;;;;;;112.38;50.28;;;;;;;9.33;100.00;102617.13;4984497;28;20038;-71
2023/04/17 06:56:53;;;;;;;111.38;48.72;;;;;;;9.10;100.00;102616.94;4986012;28;21058;-69
2023/04/17 06:59:19;;;;;;;111.00;49.40;;;;;;;9.07;100.00;102639.19;4990083;28;20045;-71
2023/04/17 07:01:45;;;;;;;111.53;49.60;;;;;;;9.28;100.00;102636.81;4983212;28;20030;-71
2023/04/17 07:04:11;;;;;;;110.10;49.03;;;;;;;9.07;100.00;102633.00;4983987;28;20129;-69
2023/04/17 07:06:38;;;;;;;98.18;47.10;;;;;;;9.13;100.00;102634.59;4978792;28;20544;-69
2023/04/17 07:09:04;;;;;;;105.68;47.13;;;;;;;9.10;100.00;102637.38;4987023;28;20042;-71
2023/04/17 07:11:31;;;;;;;98.20;48.50;;;;;;;9.18;100.00;102638.00;4991570;28;20066;-70
2023/04/17 07:13:57;;;;;;;99.10;48.05;;;;;;;9.02;100.00;102643.75;4986859;28;20035;-70
2023/04/17 07:16:23;;;;;;;99.35;46.97;;;;;;;9.20;100.00;102644.19;4987387;28;20049;-71
2023/04/17 07:18:49;;;;;;;96.63;46.25;;;;;;;9.02;100.00;102648.22;4989793;28;21834;-72
2023/04/17 07:21:15;;;;;;;95.72;46.55;;;;;;;9.06;100.00;102642.78;4985516;28;20073;-71
2023/04/17 07:23:43;;;;;;;100.90;47.70;;;;;;;9.21;100.00;102646.78;4989044;28;20566;-71
2023/04/17 07:26:12;;;;;;;104.18;47.13;;;;;;;9.38;100.00;102648.94;4989699;28;20039;-69
2023/04/17 07:28:38;;;;;;;105.47;48.58;;;;;;;9.26;100.00;102652.84;4991478;28;20487;-71
2023/04/17 07:31:07;;;;;;;101.85;49.95;;;;;;;9.40;100.00;102647.13;4988490;28;20038;-70
2023/04/17 07:33:38;;;;;;;103.38;48.67;;;;;;;9.44;100.00;102658.53;4986715;28;20118;-70
2023/04/17 07:36:07;;;;;;;100.45;47.13;;;;;;;9.44;100.00;102656.78;4985916;28;20095;-70
2023/04/17 07:38:34;;;;;;;104.60;50.08;;;;;;;9.48;100.00;102652.22;4986654;28;20043;-71
2023/04/17 07:40:59;;;;;;;95.30;47.83;;;;;;;9.47;100.00;102655.81;4985471;28;20487;-69
2023/04/17 07:43:26;;;;;;;105.32;49.40;;;;;;;9.51;100.00;102661.00;4977212;28;20137;-70
2023/04/17 07:45:52;;;;;;;99.70;48.25;;;;;;;9.44;100.00;102659.44;4976052;28;20046;-69
2023/04/17 07:48:18;;;;;;;100.45;49.65;;;;;;;9.47;100.00;102662.00;4977891;28;20038;-70
2023/04/17 07:50:44;;;;;;;101.22;50.30;;;;;;;9.72;100.00;102655.94;4972803;28;20366;-70
2023/04/17 08:00:45;;;;;;;95.75;45.88;;;;;;;9.68;100.00;102651.63;4976293;28;20437;-69
2023/04/17 08:03:12;;;;;;;91.55;46.17;;;;;;;9.64;100.00;102664.19;4985575;28;20038;-70
2023/04/17 08:05:39;;;;;;;92.75;46.33;;;;;;;9.54;100.00;102655.59;4979372;28;20041;-71
2023/04/17 08:08:05;;;;;;;98.78;46.47;;;;;;;9.76;100.00;102658.47;4977223;28;20043;-69
2023/04/17 08:10:31;;;;;;;98.45;48.38;;;;;;;9.46;100.00;102668.25;4973401;28;20055;-70
2023/04/17 08:13:01;;;;;;;99.53;48.08;;;;;;;9.66;100.00;102667.66;4972597;28;20500;-68
2023/04/17 08:15:26;;;;;;;101.13;47.60;;;;;;;9.69;100.00;102664.00;4983523;28;20034;-70
2023/04/17 08:17:52;;;;;;;102.18;50.33;;;;;;;9.65;100.00;102670.38;4983299;28;20034;-71
2023/04/17 08:20:18;;;;;;;101.22;49.35;;;;;;;9.71;100.00;102671.06;4975344;28;20062;-72
2023/04/17 08:22:45;;;;;;;99.07;49.45;;;;;;;9.97;100.00;102669.38;4975411;28;20381;-72
2023/04/17 08:25:13;;;;;;;97.18;46.78;;;;;;;9.86;100.00;102667.91;4976387;28;20046;-69
2023/04/17 08:27:40;;;;;;;92.40;46.80;;;;;;;9.89;100.00;102672.28;4976024;28;20027;-69
2023/04/17 08:30:08;;;;;;;102.15;50.20;;;;;;;10.44;100.00;102667.88;4979330;28;20035;-69
2023/04/17 08:32:44;;;;;;;96.47;47.05;;;;;;;10.43;100.00;102662.56;4983511;28;20247;-70
2023/04/17 08:35:12;;;;;;;85.68;45.60;;;;;;;10.74;100.00;102662.41;4978312;28;20054;-72
2023/04/17 08:37:39;;;;;;;89.75;46.40;;;;;;;10.71;100.00;102666.06;4982727;28;20038;-69
2023/04/17 08:40:08;;;;;;;96.43;48.22;;;;;;;10.77;100.00;102671.19;4974364;28;20043;-69
2023/04/17 08:42:40;;;;;;;94.72;46.03;;;;;;;10.62;100.00;102667.25;4971216;28;20035;-71
2023/04/17 08:45:09;;;;;;;92.88;47.80;;;;;;;10.40;100.00;102668.91;4978133;28;20140;-71
2023/04/17 08:47:38;;;;;;;100.63;50.03;;;;;;;10.44;100.00;102667.88;4974932;28;20039;-71
2023/04/17 08:50:13;;;;;;;99.35;49.47;;;;;;;10.68;100.00;102671.50;4976202;28;20544;-71
2023/04/17 08:52:45;;;;;;;96.15;49.97;;;;;;;10.54;100.00;102666.66;4980581;28;20034;-71
2023/04/17 08:55:16;;;;;;;100.15;48.53;;;;;;;10.80;100.00;102668.41;4980789;28;20038;-71
2023/04/17 08:58:03;;;;;;;96.10;50.22;;;;;;;10.93;100.00;102659.97;4972932;28;20026;-71
2023/04/17 09:00:32;;;;;;;88.70;47.70;;;;;;;11.01;100.00;102663.25;4975152;28;20046;-71
2023/04/17 09:02:59;;;;;;;96.78;49.03;;;;;;;11.06;100.00;102656.81;4989674;28;20374;-71
2023/04/17 09:05:29;;;;;;;88.00;47.53;;;;;;;11.33;100.00;102654.03;4977750;28;20030;-71
2023/04/17 09:08:09;;;;;;;92.57;48.95;;;;;;;11.40;100.00;102660.91;4980567;28;20988;-72
2023/04/17 09:10:43;;;;;;;84.60;45.22;;;;;;;11.07;100.00;102660.34;4982117;28;20117;-71
2023/04/17 09:13:13;;;;;;;89.20;47.58;;;;;;;11.47;100.00;102657.06;4984161;28;20035;-70
2023/04/17 09:15:41;;;;;;;81.25;44.20;;;;;;;11.66;100.00;102655.44;4975522;28;20160;-70
2023/04/17 09:18:31;;;;;;;91.70;47.85;;;;;;;11.94;100.00;102651.69;4976681;28;21685;-71
2023/04/17 09:20:58;;;;;;;83.95;45.47;;;;;;;12.36;100.00;102649.09;4979315;28;20039;-70
2023/04/17 09:23:29;;;;;;;80.07;45.08;;;;;;;12.15;100.00;102649.97;4991595;28;20845;-70
2023/04/17 09:26:06;;;;;;;83.68;42.58;;;;;;;12.07;100.00;102649.41;4974421;28;21098;-70
2023/04/17 09:28:37;;;;;;;66.95;38.60;;;;;;;12.64;100.00;102651.44;4978131;28;20035;-70
2023/04/17 09:31:15;;;;;;;73.05;41.00;;;;;;;12.61;100.00;102654.25;4978184;28;20045;-70
2023/04/17 09:33:56;;;;;;;75.28;41.78;;;;;;;12.40;100.00;102648.03;4991192;28;20042;-70
2023/04/17 09:36:22;;;;;;;69.22;37.97;;;;;;;12.62;100.00;102649.78;4984215;28;20526;-70
2023/04/17 09:38:48;;;;;;;64.38;38.42;;;;;;;12.63;100.00;102656.88;4984566;28;20046;-71
2023/04/17 09:41:26;;;;;;;65.13;39.08;;;;;;;12.98;100.00;102649.09;4984060;28;20129;-70
2023/04/17 09:44:05;;;;;;;61.40;36.92;;;;;;;12.64;100.00;102651.44;4982349;28;20046;-71
2023/04/17 09:46:40;;;;;;;67.82;37.72;;;;;;;12.74;100.00;102659.06;4982712;28;20118;-70
2023/04/17 09:49:14;;;;;;;65.32;36.92;;;;;;;12.45;100.00;102650.50;4985178;28;20149;-70
2023/04/17 09:51:41;;;;;;;66.03;36.75;;;;;;;12.75;100.00;102653.69;4984957;28;20121;-71
2023/04/17 09:54:09;;;;;;;63.10;36.72;;;;;;;12.98;100.00;102663.34;4986385;28;20043;-71
2023/04/17 09:56:36;;;;;;;67.90;36.95;;;;;;;12.92;100.00;102658.28;4979269;28;20141;-71
2023/04/17 09:59:05;;;;;;;60.72;35.25;;;;;;;13.36;100.00;102650.09;4983530;28;20034;-71
2023/04/17 10:01:33;;;;;;;64.18;36.88;;;;;;;13.33;100.00;102653.78;4990493;28;20890;-72
2023/04/17 10:04:01;;;;;;;55.50;35.28;;;;;;;13.81;100.00;102644.38;4987916;28;20038;-70
2023/04/17 10:06:28;;;;;;;59.83;35.50;;;;;;;13.41;100.00;102659.66;4987318;28;20065;-70
2023/04/17 10:08:54;;;;;;;61.60;36.78;;;;;;;13.93;100.00;102641.09;4987098;28;20039;-70
2023/04/17 10:11:23;;;;;;;62.22;35.17;;;;;;;13.44;100.00;102647.91;4983641;28;20031;-70
2023/04/17 10:14:00;;;;;;;56.85;34.42;;;;;;;13.55;100.00;102644.72;4979714;28;20781;-70
2023/04/17 10:16:39;;;;;;;61.08;35.83;;;;;;;14.09;100.00;102635.84;4986538;28;20121;-70
2023/04/17 10:19:24;;;;;;;59.38;34.78;;;;;;;13.34;100.00;102649.28;4979810;28;20042;-69
2023/04/17 10:22:18;;;;;;;52.50;32.10;;;;;;;13.53;100.00;102638.56;4992043;28;20035;-70
2023/04/17 10:25:14;;;;;;;52.83;32.47;;;;;;;13.77;100.00;102636.56;4977120;28;20047;-70
2023/04/17 10:27:40;;;;;;;55.20;32.15;;;;;;;13.30;100.00;102655.72;4983706;28;20043;-72
2023/04/17 10:30:09;;;;;;;49.88;28.85;;;;;;;13.10;100.00;102646.75;4977897;28;20054;-69
2023/04/17 10:32:35;;;;;;;48.13;30.33;;;;;;;13.38;100.00;102632.13;4981482;28;20102;-69
2023/04/17 10:35:22;;;;;;;52.42;31.25;;;;;;;13.76;100.00;102635.69;4979941;28;20027;-72
2023/04/17 10:37:47;;;;;;;44.58;28.88;;;;;;;13.76;98.21;102635.69;4976670;28;20047;-69
2023/04/17 10:40:20;;;;;;;53.05;29.60;;;;;;;13.55;95.20;102634.88;4977601;28;20046;-69
2023/04/17 10:43:24;;;;;;;41.70;28.10;;;;;;;13.77;95.28;102629.38;4981977;28;20039;-71
2023/04/17 10:46:05;;;;;;;45.42;29.77;;;;;;;14.28;97.65;102634.94;4984337;28;20042;-71
2023/04/17 10:48:45;;;;;;;44.45;28.60;;;;;;;14.00;96.59;102630.91;4980380;28;20033;-72
2023/04/17 10:51:20;;;;;;;45.30;27.95;;;;;;;13.77;90.47;102631.19;4981026;28;20042;-70
2023/04/17 10:53:59;;;;;;;45.72;28.10;;;;;;;13.91;93.47;102634.06;4979627;28;20108;-70
2023/04/17 10:56:29;;;;;;;47.50;28.52;;;;;;;13.69;93.21;102634.22;4981597;28;20031;-70
2023/04/17 10:58:59;;;;;;;45.95;29.08;;;;;;;14.11;98.44;102633.97;4984773;28;20047;-70
2023/04/17 11:01:27;;;;;;;43.58;28.58;;;;;;;13.99;91.43;102629.19;4983330;28;20215;-71
2023/04/17 11:03:53;;;;;;;46.45;28.65;;;;;;;13.90;90.56;102633.19;4979408;28;20035;-70
2023/04/17 11:06:19;;;;;;;49.78;27.77;;;;;;;14.32;90.54;102625.78;4990723;28;20122;-70
2023/04/17 11:08:46;;;;;;;53.60;31.20;;;;;;;14.03;88.39;102627.22;4983720;28;20039;-70
2023/04/17 11:11:13;;;;;;;45.30;28.60;;;;;;;14.57;89.27;102620.06;4982129;28;20169;-71
2023/04/17 11:13:48;;;;;;;47.15;27.45;;;;;;;14.11;85.17;102617.00;4984392;28;20761;-70
2023/04/17 11:16:14;;;;;;;40.90;26.35;;;;;;;14.84;85.46;102613.25;4986346;28;20038;-70
2023/04/17 11:18:42;;;;;;;42.88;27.15;;;;;;;14.62;83.45;102613.50;4998122;28;20146;-70